Time;durP1;ratioP1;P1;durP2;ratioP2;P2;SDS_P1;SDS_P2;PMS_P1;PMS_P2;Temp;Humidity;BMP_temperature;BMP_pressure;BME280_temperature;BME280_humidity;BME280_pressure;Samples;Min_cycle;Max_cycle;Signal;HPM_P1;HPM_P2
2023/07/04 00:02:08;;;;;;;2.22;0.90;;;;;20.30;100874.00;;;;5010397;28;20197;-78
2023/07/04 00:04:35;;;;;;;3.65;1.48;;;;;20.30;100866.00;;;;5009386;28;20255;-79
2023/07/04 00:07:03;;;;;;;3.50;1.35;;;;;20.30;100870.00;;;;5010060;28;20193;-79
2023/07/04 00:09:30;;;;;;;4.90;1.27;;;;;20.20;100863.00;;;;4998668;28;20220;-79
2023/07/04 00:11:58;;;;;;;3.72;1.58;;;;;20.20;100867.00;;;;5010066;28;20322;-79
2023/07/04 00:14:25;;;;;;;2.25;1.27;;;;;20.20;100859.00;;;;5010503;28;20578;-78
2023/07/04 00:16:54;;;;;;;3.70;1.00;;;;;20.20;100865.00;;;;5007195;28;20714;-79
2023/07/04 00:19:22;;;;;;;4.38;1.40;;;;;20.20;100857.00;;;;5008987;28;20209;-79
2023/07/04 00:21:49;;;;;;;5.65;1.00;;;;;20.20;100860.00;;;;5011475;28;20208;-79
2023/07/04 00:24:17;;;;;;;6.50;1.30;;;;;20.20;100865.00;;;;5010765;28;20193;-79
2023/07/04 00:26:45;;;;;;;5.18;1.60;;;;;20.20;100865.00;;;;5009097;28;20267;-79
2023/07/04 00:29:13;;;;;;;3.85;1.02;;;;;20.20;100865.00;;;;5006667;28;20228;-79
2023/07/04 00:31:41;;;;;;;4.55;1.42;;;;;20.20;100868.00;;;;5009059;28;20620;-79
2023/07/04 00:34:10;;;;;;;2.13;0.80;;;;;20.20;100875.00;;;;5006800;28;20224;-79
2023/07/04 00:36:39;;;;;;;3.08;1.00;;;;;20.30;100875.00;;;;5008981;28;20209;-79
2023/07/04 00:39:07;;;;;;;4.57;1.10;;;;;20.30;100870.00;;;;5007378;28;20204;-79
2023/07/04 00:41:35;;;;;;;4.90;1.20;;;;;20.30;100876.00;;;;5010718;28;20200;-79
2023/07/04 00:44:09;;;;;;;3.15;1.02;;;;;20.30;100900.00;;;;5009722;28;20205;-79
2023/07/04 00:46:45;;;;;;;9.10;1.80;;;;;20.30;100904.00;;;;5009325;28;20228;-79
2023/07/04 00:49:22;;;;;;;4.57;1.10;;;;;20.30;100898.00;;;;5007252;28;20204;-78
2023/07/04 00:51:57;;;;;;;3.17;0.93;;;;;20.30;100893.00;;;;5010082;28;20227;-79
2023/07/04 00:54:27;;;;;;;3.65;1.30;;;;;20.30;100880.00;;;;5010102;28;20204;-79
2023/07/04 00:57:06;;;;;;;4.25;1.52;;;;;20.30;100878.00;;;;5006110;28;20197;-79
2023/07/04 00:59:35;;;;;;;5.25;1.10;;;;;20.30;100880.00;;;;5001456;28;20210;-79
2023/07/04 01:02:02;;;;;;;2.05;0.82;;;;;20.30;100878.00;;;;5000155;28;20201;-79
2023/07/04 01:04:32;;;;;;;2.97;1.15;;;;;20.30;100890.00;;;;5010693;28;20197;-79
2023/07/04 01:07:06;;;;;;;4.50;0.73;;;;;20.30;100888.00;;;;5005089;28;20209;-79
2023/07/04 01:09:35;;;;;;;3.22;1.00;;;;;20.30;100903.00;;;;5009274;28;20894;-79
2023/07/04 01:12:03;;;;;;;4.93;1.08;;;;;20.30;100895.00;;;;5009482;28;20255;-79
2023/07/04 01:14:30;;;;;;;4.43;1.55;;;;;20.30;100890.00;;;;5009452;28;20208;-79
2023/07/04 01:16:57;;;;;;;2.88;1.20;;;;;20.30;100899.00;;;;5005622;28;20625;-79
2023/07/04 01:19:35;;;;;;;5.55;1.55;;;;;20.20;100900.00;;;;5007147;28;20658;-79
2023/07/04 01:22:14;;;;;;;3.15;0.90;;;;;20.20;100895.00;;;;5008734;28;20290;-79
2023/07/04 01:24:49;;;;;;;2.42;1.02;;;;;20.20;100894.00;;;;5009620;28;20205;-79
2023/07/04 01:27:19;;;;;;;2.25;0.90;;;;;20.30;100897.00;;;;5005054;28;20192;-79
2023/07/04 01:29:48;;;;;;;3.95;1.38;;;;;20.30;100899.00;;;;5007750;28;20272;-79
2023/07/04 01:32:16;;;;;;;5.53;1.30;;;;;20.30;100892.00;;;;5007886;28;20592;-79
2023/07/04 01:34:45;;;;;;;2.15;0.75;;;;;20.30;100888.00;;;;5002992;28;20681;-78
2023/07/04 01:37:14;;;;;;;2.92;0.80;;;;;20.30;100875.00;;;;5005933;28;20280;-79
2023/07/04 01:39:42;;;;;;;1.88;1.10;;;;;20.30;100882.00;;;;5008475;28;20201;-79
2023/07/04 01:42:09;;;;;;;4.90;1.17;;;;;20.30;100878.00;;;;5009048;28;20197;-79
2023/07/04 01:44:38;;;;;;;1.60;1.08;;;;;20.30;100872.00;;;;5007079;28;20862;-79
2023/07/04 01:47:06;;;;;;;2.35;0.70;;;;;20.30;100872.00;;;;5008243;28;20208;-79
2023/07/04 01:49:34;;;;;;;7.35;1.40;;;;;20.30;100885.00;;;;5008483;28;20671;-79
2023/07/04 01:52:01;;;;;;;4.22;1.52;;;;;20.30;100872.00;;;;5004935;28;20235;-79
2023/07/04 01:54:28;;;;;;;2.55;0.90;;;;;20.30;100881.00;;;;5008683;28;20201;-78
2023/07/04 01:56:56;;;;;;;3.13;0.90;;;;;20.20;100878.00;;;;5004029;28;20208;-78
2023/07/04 01:59:24;;;;;;;3.28;1.00;;;;;20.20;100887.00;;;;5004441;28;20197;-78
2023/07/04 02:01:53;;;;;;;4.90;1.20;;;;;20.20;100887.00;;;;5008577;28;20208;-79
2023/07/04 02:04:20;;;;;;;2.97;0.65;;;;;20.20;100881.00;;;;5008659;28;20205;-79
2023/07/04 02:06:47;;;;;;;4.78;1.60;;;;;20.20;100886.00;;;;5002905;28;20822;-79
2023/07/04 02:09:16;;;;;;;3.85;1.00;;;;;20.20;100885.00;;;;5006613;28;20229;-79
2023/07/04 02:11:45;;;;;;;3.13;1.00;;;;;20.20;100885.00;;;;5007399;28;20245;-79
2023/07/04 02:14:13;;;;;;;2.25;1.10;;;;;20.10;100888.00;;;;5008235;28;20860;-79
2023/07/04 02:16:40;;;;;;;1.73;0.95;;;;;20.10;100891.00;;;;5006004;28;20197;-79
2023/07/04 02:19:08;;;;;;;4.68;0.93;;;;;20.10;100884.00;;;;5007079;28;20204;-78
2023/07/04 02:21:36;;;;;;;1.88;0.88;;;;;20.10;100890.00;;;;5007170;28;20205;-79
2023/07/04 02:24:04;;;;;;;2.38;1.00;;;;;20.10;100890.00;;;;5004119;28;20205;-79
2023/07/04 02:26:32;;;;;;;1.83;0.90;;;;;20.10;100887.00;;;;5002309;28;20208;-79
2023/07/04 02:28:59;;;;;;;3.10;1.00;;;;;20.00;100886.00;;;;5007055;28;20271;-79
2023/07/04 02:31:27;;;;;;;4.50;1.50;;;;;20.00;100886.00;;;;5007667;28;20202;-79
2023/07/04 02:33:55;;;;;;;3.22;0.80;;;;;20.00;100881.00;;;;5007709;28;20197;-79
2023/07/04 02:36:24;;;;;;;3.75;1.08;;;;;20.00;100880.00;;;;5005067;28;20658;-79
2023/07/04 02:38:51;;;;;;;6.97;1.10;;;;;19.90;100888.00;;;;5006894;28;20224;-79
2023/07/04 02:41:18;;;;;;;1.30;0.70;;;;;19.90;100884.00;;;;5004715;28;20216;-79
2023/07/04 02:43:46;;;;;;;3.97;1.20;;;;;19.90;100880.00;;;;5007774;28;20255;-79
2023/07/04 02:46:13;;;;;;;3.85;1.00;;;;;19.90;100884.00;;;;5003864;28;20218;-78
2023/07/04 02:48:42;;;;;;;2.20;0.77;;;;;19.80;100884.00;;;;5006475;28;20208;-79
2023/07/04 02:51:09;;;;;;;2.55;0.95;;;;;19.90;100898.00;;;;5007333;28;20197;-78
2023/07/04 02:53:38;;;;;;;2.17;1.00;;;;;19.80;100889.00;;;;5007034;28;20221;-79
2023/07/04 02:56:07;;;;;;;2.70;0.90;;;;;19.80;100888.00;;;;4992811;28;20189;-78
2023/07/04 02:58:35;;;;;;;2.40;0.95;;;;;19.80;100892.00;;;;5000896;28;20288;-79
2023/07/04 03:01:04;;;;;;;2.58;1.42;;;;;19.80;100889.00;;;;5002008;28;20200;-79
2023/07/04 03:03:32;;;;;;;4.38;1.30;;;;;19.80;100892.00;;;;5007193;28;20211;-79
2023/07/04 03:06:01;;;;;;;2.35;0.95;;;;;19.80;100893.00;;;;5006523;28;20201;-79
2023/07/04 03:08:28;;;;;;;3.80;1.30;;;;;19.80;100882.00;;;;5009129;28;20293;-79
2023/07/04 03:10:56;;;;;;;3.15;1.05;;;;;19.80;100882.00;;;;5006222;28;20706;-79
2023/07/04 03:13:24;;;;;;;3.15;1.45;;;;;19.80;100888.00;;;;5006383;28;20229;-79
2023/07/04 03:15:51;;;;;;;3.88;1.13;;;;;19.80;100890.00;;;;4996321;28;20212;-79
2023/07/04 03:18:18;;;;;;;1.90;0.82;;;;;19.80;100895.00;;;;5004773;28;20228;-79
2023/07/04 03:20:46;;;;;;;3.05;1.10;;;;;19.80;100891.00;;;;5007560;28;20212;-78
2023/07/04 03:23:13;;;;;;;2.72;1.45;;;;;19.80;100896.00;;;;5006710;28;21083;-79
2023/07/04 03:25:40;;;;;;;1.90;0.80;;;;;19.80;100889.00;;;;5004546;28;20212;-79
2023/07/04 03:28:09;;;;;;;4.82;1.33;;;;;19.80;100896.00;;;;5004147;28;20205;-78
2023/07/04 03:30:36;;;;;;;5.28;1.33;;;;;19.80;100900.00;;;;4998234;28;20210;-78
2023/07/04 03:33:03;;;;;;;3.08;0.95;;;;;19.80;100900.00;;;;4998527;28;20232;-79
2023/07/04 03:35:31;;;;;;;2.92;1.00;;;;;19.80;100894.00;;;;5006850;28;20685;-79
2023/07/04 03:37:58;;;;;;;3.65;1.50;;;;;19.80;100892.00;;;;5005420;28;20201;-78
2023/07/04 03:40:25;;;;;;;2.47;0.70;;;;;19.80;100896.00;;;;5006763;28;20208;-78
2023/07/04 03:42:52;;;;;;;2.17;1.27;;;;;19.80;100901.00;;;;4994436;28;20200;-78
2023/07/04 03:45:21;;;;;;;2.95;1.02;;;;;19.80;100895.00;;;;5003277;28;20220;-78
2023/07/04 03:47:48;;;;;;;4.68;1.13;;;;;19.80;100894.00;;;;5003592;28;20209;-79
2023/07/04 03:50:16;;;;;;;3.03;1.10;;;;;19.80;100893.00;;;;4994665;28;20209;-78
2023/07/04 03:52:43;;;;;;;3.10;1.30;;;;;19.80;100900.00;;;;4992680;28;20245;-79
2023/07/04 03:55:11;;;;;;;4.35;0.90;;;;;19.80;100903.00;;;;5005748;28;20200;-79
2023/07/04 03:57:38;;;;;;;2.10;1.10;;;;;19.80;100903.00;;;;4999664;28;20225;-79
2023/07/04 04:00:09;;;;;;;2.35;1.13;;;;;19.80;100904.00;;;;5005151;28;20197;-79
2023/07/04 04:02:37;;;;;;;2.08;0.85;;;;;19.80;100903.00;;;;5006980;28;20201;-79
2023/07/04 04:05:05;;;;;;;3.08;0.85;;;;;19.80;100909.00;;;;5005342;28;20200;-79
2023/07/04 04:07:32;;;;;;;2.92;0.93;;;;;19.80;100902.00;;;;5003832;28;20734;-79
2023/07/04 04:10:00;;;;;;;2.05;0.82;;;;;19.90;100904.00;;;;5006249;28;20209;-79
2023/07/04 04:12:27;;;;;;;1.65;0.93;;;;;19.80;100901.00;;;;5005131;28;20749;-79
2023/07/04 04:14:54;;;;;;;1.38;0.90;;;;;19.80;100901.00;;;;5005039;28;20208;-78
2023/07/04 04:17:22;;;;;;;5.35;1.40;;;;;19.90;100900.00;;;;5000599;28;20216;-79
2023/07/04 04:19:50;;;;;;;2.67;1.10;;;;;19.80;100900.00;;;;5005585;28;20203;-79
2023/07/04 04:22:18;;;;;;;2.95;1.25;;;;;19.90;100910.00;;;;5007823;28;20201;-78
2023/07/04 04:24:46;;;;;;;4.40;1.20;;;;;19.90;100910.00;;;;5000713;28;20288;-79
2023/07/04 04:27:15;;;;;;;2.50;1.13;;;;;19.90;100914.00;;;;5003865;28;20613;-79
2023/07/04 04:29:42;;;;;;;2.67;1.17;;;;;19.90;100902.00;;;;4999517;28;20194;-79
2023/07/04 04:32:10;;;;;;;2.75;1.15;;;;;19.90;100903.00;;;;5006103;28;20682;-79
2023/07/04 04:34:37;;;;;;;2.50;1.05;;;;;19.90;100909.00;;;;5005567;28;20204;-78
2023/07/04 04:37:06;;;;;;;2.42;1.13;;;;;19.90;100912.00;;;;5005356;28;20196;-79
2023/07/04 04:39:33;;;;;;;3.70;1.10;;;;;19.90;100907.00;;;;5006901;28;20212;-79
2023/07/04 04:42:00;;;;;;;2.03;1.15;;;;;19.90;100918.00;;;;5007049;28;20237;-79
2023/07/04 04:44:28;;;;;;;2.65;1.02;;;;;19.90;100918.00;;;;5009448;28;20208;-79
2023/07/04 04:46:55;;;;;;;3.25;1.05;;;;;20.00;100920.00;;;;5007568;28;20200;-79
2023/07/04 04:49:22;;;;;;;4.72;1.00;;;;;20.00;100918.00;;;;5008645;28;20655;-79
2023/07/04 04:51:51;;;;;;;2.05;0.85;;;;;20.00;100925.00;;;;5009937;28;20569;-79
2023/07/04 04:54:20;;;;;;;3.25;0.90;;;;;20.00;100923.00;;;;5007812;28;20286;-79
2023/07/04 04:56:47;;;;;;;2.15;0.95;;;;;20.00;100930.00;;;;5002454;28;20247;-79
2023/07/04 04:59:15;;;;;;;2.42;0.90;;;;;20.00;100929.00;;;;5008131;28;20197;-79
2023/07/04 05:01:42;;;;;;;2.17;1.10;;;;;20.10;100929.00;;;;5002319;28;20192;-79
2023/07/04 05:04:09;;;;;;;2.80;1.25;;;;;20.10;100923.00;;;;5000379;28;20200;-79
2023/07/04 05:06:37;;;;;;;2.63;1.15;;;;;20.10;100928.00;;;;4999809;28;20197;-79
2023/07/04 05:09:05;;;;;;;6.88;1.30;;;;;20.10;100926.00;;;;4996742;28;20227;-79
2023/07/04 05:11:34;;;;;;;3.50;0.82;;;;;20.10;100928.00;;;;4997513;28;20244;-79
2023/07/04 05:14:02;;;;;;;2.22;1.00;;;;;20.20;100928.00;;;;5001285;28;20236;-79
2023/07/04 05:16:29;;;;;;;2.67;0.93;;;;;20.20;100932.00;;;;5002644;28;20220;-78
2023/07/04 05:18:56;;;;;;;6.20;1.40;;;;;20.20;100937.00;;;;4999068;28;20202;-78
2023/07/04 05:21:25;;;;;;;3.05;1.17;;;;;20.20;100926.00;;;;5007863;28;20215;-79
2023/07/04 05:23:53;;;;;;;3.10;1.33;;;;;20.20;100931.00;;;;5007714;28;20204;-80
2023/07/04 05:26:22;;;;;;;2.75;0.80;;;;;20.30;100939.00;;;;5002646;28;20209;-79
2023/07/04 05:28:52;;;;;;;3.03;1.20;;;;;20.30;100933.00;;;;5006137;28;20655;-78
2023/07/04 05:31:22;;;;;;;5.85;1.40;;;;;20.30;100931.00;;;;5001865;28;20205;-79
2023/07/04 05:33:49;;;;;;;4.30;1.25;;;;;20.40;100922.00;;;;5003704;28;20236;-76
2023/07/04 05:36:19;;;;;;;5.57;1.45;;;;;20.40;100923.00;;;;5007054;28;20209;-77
2023/07/04 05:38:48;;;;;;;4.68;1.48;;;;;20.50;100929.00;;;;5005127;28;20201;-77
2023/07/04 05:41:18;;;;;;;4.05;1.35;;;;;20.50;100936.00;;;;5002602;28;20196;-77
2023/07/04 05:43:45;;;;;;;4.57;1.70;;;;;20.60;100938.00;;;;5004035;28;20200;-76
2023/07/04 05:46:15;;;;;;;5.75;1.40;;;;;20.70;100944.00;;;;5008615;28;20201;-78
2023/07/04 05:48:43;;;;;;;4.30;1.58;;;;;20.70;100945.00;;;;5005326;28;20663;-78
2023/07/04 05:51:13;;;;;;;5.07;1.63;;;;;20.80;100943.00;;;;5010376;28;20201;-77
2023/07/04 05:53:42;;;;;;;8.40;1.65;;;;;20.90;100948.00;;;;5008127;28;20294;-78
2023/07/04 05:56:12;;;;;;;5.32;1.65;;;;;20.90;100948.00;;;;5007884;28;20201;-77
2023/07/04 05:58:40;;;;;;;4.47;1.38;;;;;21.00;100944.00;;;;5009009;28;20197;-78
2023/07/04 06:01:10;;;;;;;6.70;2.05;;;;;21.00;100959.00;;;;5008227;28;20205;-78
2023/07/04 06:03:39;;;;;;;7.03;1.50;;;;;21.10;100960.00;;;;4996573;28;20214;-77
2023/07/04 06:06:08;;;;;;;4.95;1.42;;;;;21.10;100963.00;;;;4990327;28;20213;-78
2023/07/04 06:08:35;;;;;;;5.40;1.40;;;;;21.20;100964.00;;;;4997427;28;20600;-78
2023/07/04 06:11:04;;;;;;;4.28;1.60;;;;;21.20;100959.00;;;;5002109;28;20235;-78
2023/07/04 06:13:31;;;;;;;3.33;1.40;;;;;21.30;100963.00;;;;5001943;28;20225;-78
2023/07/04 06:16:02;;;;;;;6.07;1.58;;;;;21.30;100968.00;;;;5007325;28;20208;-79
2023/07/04 06:18:29;;;;;;;4.22;1.83;;;;;21.40;100972.00;;;;5008950;28;20976;-78
2023/07/04 06:21:07;;;;;;;6.32;1.50;;;;;21.30;100968.00;;;;5008204;28;20201;-78
2023/07/04 06:23:35;;;;;;;5.13;1.35;;;;;21.40;100966.00;;;;5004501;28;20208;-78
2023/07/04 06:26:02;;;;;;;6.53;1.90;;;;;21.50;100966.00;;;;5006380;28;20204;-78
2023/07/04 06:28:29;;;;;;;7.20;1.40;;;;;21.50;100960.00;;;;5007650;28;20208;-78
2023/07/04 06:30:57;;;;;;;4.53;0.95;;;;;21.60;100970.00;;;;5004120;28;20201;-78
2023/07/04 06:33:24;;;;;;;3.97;1.05;;;;;21.60;100965.00;;;;5007792;28;20579;-78
2023/07/04 06:35:52;;;;;;;5.15;1.63;;;;;21.70;100973.00;;;;5005819;28;20200;-77
2023/07/04 06:38:22;;;;;;;4.75;1.33;;;;;21.70;100972.00;;;;5004273;28;20209;-78
2023/07/04 06:40:56;;;;;;;3.63;1.80;;;;;21.70;100964.00;;;;4998769;28;20744;-78
2023/07/04 06:43:25;;;;;;;4.68;1.75;;;;;21.80;100973.00;;;;5006233;28;20278;-78
2023/07/04 06:45:53;;;;;;;3.00;1.38;;;;;21.90;100987.00;;;;5004299;28;20205;-78
2023/07/04 06:48:22;;;;;;;5.53;1.52;;;;;21.90;100978.00;;;;5004597;28;20271;-78
2023/07/04 06:50:59;;;;;;;5.03;1.35;;;;;21.90;100979.00;;;;5007381;28;20667;-78
2023/07/04 06:53:29;;;;;;;2.88;0.90;;;;;22.10;100978.00;;;;5007614;28;20232;-78
2023/07/04 06:56:06;;;;;;;5.57;1.63;;;;;22.00;100987.00;;;;5003130;28;20193;-78
2023/07/04 06:58:34;;;;;;;8.10;1.65;;;;;22.20;100985.00;;;;5004037;28;20640;-79
2023/07/04 07:01:02;;;;;;;3.72;0.85;;;;;22.20;100990.00;;;;5002580;28;20212;-78
2023/07/04 07:03:30;;;;;;;4.05;1.20;;;;;22.20;100999.00;;;;5003678;28;20196;-78
2023/07/04 07:05:57;;;;;;;2.30;0.95;;;;;22.20;100999.00;;;;4997555;28;20212;-78
2023/07/04 07:08:25;;;;;;;4.35;1.17;;;;;22.20;101000.00;;;;5004950;28;20706;-79
2023/07/04 07:10:55;;;;;;;3.08;0.90;;;;;22.10;100997.00;;;;5007065;28;20713;-79
2023/07/04 07:13:23;;;;;;;4.45;1.20;;;;;22.20;101002.00;;;;5000977;28;20264;-78
2023/07/04 07:15:50;;;;;;;3.25;0.95;;;;;22.20;101003.00;;;;5004393;28;20197;-79
2023/07/04 07:18:18;;;;;;;6.00;1.27;;;;;22.20;100990.00;;;;5008086;28;20193;-78
2023/07/04 07:20:45;;;;;;;4.50;1.10;;;;;22.20;100998.00;;;;5007989;28;20212;-78
2023/07/04 07:23:12;;;;;;;4.90;1.20;;;;;22.20;101001.00;;;;5005265;28;20726;-78
2023/07/04 07:25:40;;;;;;;4.63;1.77;;;;;22.20;100997.00;;;;5007196;28;20200;-79
2023/07/04 07:28:08;;;;;;;3.60;1.48;;;;;22.20;101001.00;;;;5006609;28;20211;-77
2023/07/04 07:30:36;;;;;;;3.42;1.75;;;;;22.20;101000.00;;;;5007859;28;20200;-78
2023/07/04 07:33:03;;;;;;;9.63;1.92;;;;;22.20;100999.00;;;;5005189;28;20212;-79
2023/07/04 07:35:31;;;;;;;4.75;1.52;;;;;22.20;100997.00;;;;5005062;28;20671;-78
2023/07/04 07:37:58;;;;;;;4.97;1.52;;;;;22.20;100996.00;;;;5005743;28;20232;-78
2023/07/04 07:40:26;;;;;;;5.40;1.30;;;;;22.30;100996.00;;;;5005480;28;20245;-78
2023/07/04 07:42:54;;;;;;;5.75;1.33;;;;;22.30;101003.00;;;;5004672;28;20263;-79
2023/07/04 07:45:23;;;;;;;4.65;1.27;;;;;22.30;101004.00;;;;5006663;28;20736;-79
2023/07/04 07:47:50;;;;;;;8.18;1.80;;;;;22.30;101013.00;;;;4996150;28;20593;-78
2023/07/04 07:50:17;;;;;;;6.82;1.40;;;;;22.20;101022.00;;;;4988245;28;20198;-78
2023/07/04 07:52:45;;;;;;;4.38;1.20;;;;;22.20;101021.00;;;;5000475;28;20197;-78
2023/07/04 07:55:12;;;;;;;4.97;1.35;;;;;22.20;101020.00;;;;5007248;28;20244;-78
2023/07/04 07:57:39;;;;;;;4.68;1.23;;;;;22.20;101032.00;;;;5007041;28;20201;-79
2023/07/04 08:00:08;;;;;;;6.85;1.75;;;;;22.20;101026.00;;;;5005863;28;20208;-78
2023/07/04 08:02:36;;;;;;;4.13;1.35;;;;;22.20;101020.00;;;;5006861;28;20205;-78
2023/07/04 08:05:04;;;;;;;5.53;1.00;;;;;22.20;101023.00;;;;5003214;28;20212;-78
2023/07/04 08:07:31;;;;;;;5.13;1.33;;;;;22.20;101028.00;;;;5006107;28;20205;-78
2023/07/04 08:09:59;;;;;;;2.63;1.05;;;;;22.20;101028.00;;;;5000197;28;20201;-79
2023/07/04 08:12:26;;;;;;;6.00;1.40;;;;;22.20;101033.00;;;;5007504;28;20419;-79
2023/07/04 08:14:54;;;;;;;4.45;1.08;;;;;22.10;101037.00;;;;5003596;28;20247;-79
2023/07/04 08:17:21;;;;;;;4.47;1.58;;;;;22.00;101023.00;;;;5004811;28;20546;-79
2023/07/04 08:19:50;;;;;;;5.97;1.55;;;;;22.00;101024.00;;;;5008761;28;20204;-79
2023/07/04 08:22:18;;;;;;;6.35;1.95;;;;;22.00;101028.00;;;;5000664;28;20663;-79
2023/07/04 08:24:45;;;;;;;2.95;1.10;;;;;21.90;101037.00;;;;5010114;28;20205;-78
2023/07/04 08:27:12;;;;;;;3.72;1.05;;;;;21.90;101033.00;;;;5011561;28;20208;-79
2023/07/04 08:29:40;;;;;;;4.75;1.10;;;;;21.90;101039.00;;;;5011049;28;20580;-78
2023/07/04 08:32:10;;;;;;;6.22;1.35;;;;;21.90;101040.00;;;;5009190;28;20205;-79
2023/07/04 08:34:37;;;;;;;3.55;1.10;;;;;22.00;101036.00;;;;5007610;28;20225;-78
2023/07/04 08:37:06;;;;;;;6.05;1.63;;;;;22.00;101042.00;;;;5008350;28;20211;-78
2023/07/04 08:39:33;;;;;;;4.78;1.20;;;;;22.10;101038.00;;;;4999699;28;20205;-77
2023/07/04 08:42:03;;;;;;;5.68;0.85;;;;;22.10;101038.00;;;;4998508;28;20201;-76
2023/07/04 08:44:35;;;;;;;3.90;1.20;;;;;22.10;101040.00;;;;5003311;28;20353;-76
2023/07/04 08:47:03;;;;;;;5.97;1.83;;;;;22.20;101047.00;;;;4999984;28;20328;-77
2023/07/04 08:49:42;;;;;;;4.38;1.45;;;;;22.20;101050.00;;;;5005829;28;20909;-76
2023/07/04 08:52:17;;;;;;;3.45;1.10;;;;;22.20;101055.00;;;;5008842;28;20199;-76
2023/07/04 08:54:44;;;;;;;2.13;1.05;;;;;22.30;101052.00;;;;5007405;28;20314;-77
2023/07/04 08:57:26;;;;;;;2.00;0.88;;;;;22.30;101059.00;;;;5011157;28;20205;-75
2023/07/04 08:59:57;;;;;;;6.47;1.02;;;;;22.30;101066.00;;;;5007020;28;20300;-75
2023/07/04 09:02:48;;;;;;;2.60;0.93;;;;;22.30;101059.00;;;;5010361;28;20216;-75
2023/07/04 09:05:22;;;;;;;3.90;1.05;;;;;22.40;101063.00;;;;5007161;28;20204;-75
2023/07/04 09:07:59;;;;;;;5.13;1.58;;;;;22.40;101066.00;;;;5010702;28;20201;-76
2023/07/04 09:10:33;;;;;;;3.88;1.25;;;;;22.40;101067.00;;;;5009367;28;20197;-76
2023/07/04 09:13:03;;;;;;;4.57;1.27;;;;;22.50;101070.00;;;;5007570;28;20216;-76
2023/07/04 09:15:34;;;;;;;5.68;1.38;;;;;22.40;101069.00;;;;5010947;28;20232;-76
2023/07/04 09:18:11;;;;;;;3.15;1.20;;;;;22.40;101078.00;;;;5008552;28;20209;-76
2023/07/04 09:20:47;;;;;;;4.20;0.88;;;;;22.40;101081.00;;;;5011100;28;20658;-77
2023/07/04 09:23:22;;;;;;;3.35;1.10;;;;;22.50;101076.00;;;;5007340;28;20197;-77
2023/07/04 09:25:50;;;;;;;3.83;1.35;;;;;22.60;101080.00;;;;4997302;28;20238;-76
2023/07/04 09:28:17;;;;;;;3.75;1.10;;;;;22.60;101074.00;;;;5007316;28;20921;-76
2023/07/04 09:30:45;;;;;;;4.40;1.13;;;;;22.70;101070.00;;;;5006695;28;20299;-77
2023/07/04 09:33:14;;;;;;;5.50;1.13;;;;;22.70;101076.00;;;;5008092;28;20201;-77
2023/07/04 09:35:44;;;;;;;3.08;1.20;;;;;22.80;101075.00;;;;5007827;28;20221;-77
2023/07/04 09:38:11;;;;;;;4.28;1.10;;;;;22.90;101080.00;;;;5008782;28;20312;-77
2023/07/04 09:40:45;;;;;;;4.20;1.20;;;;;22.90;101077.00;;;;5008441;28;20206;-77
2023/07/04 09:43:25;;;;;;;3.45;1.38;;;;;23.10;101085.00;;;;5006503;28;20200;-76
2023/07/04 09:46:09;;;;;;;4.88;1.20;;;;;23.10;101076.00;;;;4997446;28;20205;-77
2023/07/04 09:48:36;;;;;;;3.47;1.00;;;;;23.20;101085.00;;;;5005226;28;20204;-77
2023/07/04 09:51:21;;;;;;;3.58;1.20;;;;;23.20;101085.00;;;;5001994;28;20201;-77
2023/07/04 09:53:49;;;;;;;4.85;1.00;;;;;23.30;101085.00;;;;5008700;28;20667;-77
2023/07/04 09:56:27;;;;;;;3.90;1.58;;;;;23.20;101082.00;;;;5009249;28;20211;-77
2023/07/04 09:59:16;;;;;;;14.85;1.67;;;;;23.30;101081.00;;;;5008033;28;20566;-78
2023/07/04 10:01:45;;;;;;;5.57;1.30;;;;;23.40;101075.00;;;;5008807;28;20225;-78
2023/07/04 10:04:14;;;;;;;3.67;1.38;;;;;23.50;101082.00;;;;4999399;28;20197;-78
2023/07/04 10:06:43;;;;;;;4.20;1.30;;;;;23.60;101087.00;;;;5009101;28;20201;-77
2023/07/04 10:09:18;;;;;;;4.45;1.17;;;;;23.70;101089.00;;;;5006806;28;20283;-76
2023/07/04 10:11:48;;;;;;;2.05;0.80;;;;;23.80;101101.00;;;;5009251;28;20212;-77
2023/07/04 10:14:16;;;;;;;2.63;1.30;;;;;23.90;101093.00;;;;5009187;28;20224;-76
2023/07/04 10:16:50;;;;;;;4.10;1.20;;;;;24.00;101088.00;;;;5008457;28;20216;-77
2023/07/04 10:19:23;;;;;;;4.50;1.20;;;;;24.10;101086.00;;;;5007121;28;20239;-77
2023/07/04 10:21:52;;;;;;;6.03;1.77;;;;;24.20;101088.00;;;;5005220;28;20192;-77
2023/07/04 10:24:21;;;;;;;3.10;0.93;;;;;24.30;101095.00;;;;5006836;28;20296;-77
2023/07/04 10:26:54;;;;;;;2.88;1.15;;;;;24.40;101096.00;;;;5009765;28;20201;-77
2023/07/04 10:29:28;;;;;;;4.68;1.27;;;;;24.40;101093.00;;;;5009017;28;20208;-77
2023/07/04 10:31:58;;;;;;;5.00;1.50;;;;;24.50;101110.00;;;;5008568;28;20203;-76
2023/07/04 10:34:26;;;;;;;4.60;1.27;;;;;24.60;101115.00;;;;5006479;28;20236;-79
2023/07/04 10:36:56;;;;;;;5.40;1.65;;;;;24.60;101105.00;;;;5007874;28;20248;-79
2023/07/04 10:39:25;;;;;;;1.73;1.00;;;;;24.70;101105.00;;;;5003711;28;20240;-77
2023/07/04 10:42:00;;;;;;;2.53;1.08;;;;;24.70;101110.00;;;;5008096;28;20201;-78
2023/07/04 10:44:30;;;;;;;1.65;0.68;;;;;24.70;101123.00;;;;5004101;28;20213;-78
2023/07/04 10:47:02;;;;;;;1.48;0.70;;;;;24.70;101118.00;;;;5007982;28;20251;-78
2023/07/04 10:49:34;;;;;;;2.67;1.02;;;;;24.80;101115.00;;;;4999143;28;20667;-78
2023/07/04 10:52:05;;;;;;;3.35;0.70;;;;;24.80;101131.00;;;;4997842;28;20205;-78
2023/07/04 10:54:33;;;;;;;3.58;0.80;;;;;24.80;101118.00;;;;4999174;28;20893;-79
2023/07/04 10:57:08;;;;;;;3.53;1.38;;;;;24.70;101111.00;;;;5002383;28;20691;-78
2023/07/04 10:59:39;;;;;;;3.55;0.95;;;;;24.80;101111.00;;;;5000392;28;20209;-78
2023/07/04 11:02:14;;;;;;;4.15;0.98;;;;;24.80;101111.00;;;;5002480;28;20204;-78
2023/07/04 11:04:42;;;;;;;4.63;1.27;;;;;24.90;101110.00;;;;4999316;28;20207;-78
2023/07/04 11:07:19;;;;;;;3.38;1.55;;;;;24.90;101113.00;;;;5001322;28;20209;-77
2023/07/04 11:09:47;;;;;;;2.35;0.63;;;;;25.00;101116.00;;;;4999055;28;20228;-78
2023/07/04 11:12:18;;;;;;;1.98;1.00;;;;;25.00;101111.00;;;;4999632;28;20221;-78
2023/07/04 11:14:48;;;;;;;2.67;0.93;;;;;25.10;101111.00;;;;4998416;28;20224;-77
2023/07/04 11:17:20;;;;;;;2.38;0.88;;;;;25.10;101111.00;;;;5000913;28;20199;-77
2023/07/04 11:19:56;;;;;;;3.33;0.65;;;;;25.20;101112.00;;;;4993373;28;20211;-77
2023/07/04 11:22:44;;;;;;;1.40;0.80;;;;;25.20;101109.00;;;;5000567;28;20280;-77
2023/07/04 11:25:30;;;;;;;5.68;0.95;;;;;25.20;101121.00;;;;5004903;28;20197;-77
2023/07/04 11:28:15;;;;;;;2.75;1.15;;;;;25.30;101121.00;;;;5003386;28;20250;-78
2023/07/04 11:30:45;;;;;;;3.35;1.10;;;;;25.50;101113.00;;;;4998395;28;20323;-77
2023/07/04 11:33:37;;;;;;;3.22;0.93;;;;;25.50;101121.00;;;;4995713;28;20221;-77
2023/07/04 11:36:06;;;;;;;3.95;1.08;;;;;25.70;101112.00;;;;4995416;28;20282;-77
2023/07/04 11:38:36;;;;;;;2.42;0.80;;;;;25.80;101120.00;;;;5006197;28;20209;-78
2023/07/04 11:41:03;;;;;;;2.65;1.10;;;;;25.90;101115.00;;;;5006917;28;20228;-77
2023/07/04 11:43:41;;;;;;;3.78;1.20;;;;;25.90;101123.00;;;;4994931;28;20205;-77
2023/07/04 11:46:20;;;;;;;3.38;1.08;;;;;25.90;101132.00;;;;4994152;28;20305;-79
2023/07/04 11:48:51;;;;;;;4.10;1.20;;;;;25.90;101126.00;;;;5005146;28;20204;-78
2023/07/04 11:51:20;;;;;;;5.15;1.10;;;;;26.00;101131.00;;;;5007072;28;20197;-78
2023/07/04 11:53:54;;;;;;;2.70;0.90;;;;;26.00;101134.00;;;;5007795;28;20215;-79
2023/07/04 11:56:36;;;;;;;5.45;1.05;;;;;25.90;101137.00;;;;5007853;28;20216;-77
2023/07/04 11:59:42;;;;;;;3.05;0.90;;;;;25.80;101144.00;;;;5005868;28;20204;-78
2023/07/04 12:02:28;;;;;;;2.33;0.90;;;;;25.80;101139.00;;;;4981953;28;20699;-77
2023/07/04 12:04:57;;;;;;;3.00;1.30;;;;;25.90;101145.00;;;;5004349;28;20626;-77
2023/07/04 12:07:45;;;;;;;2.35;0.93;;;;;25.70;101135.00;;;;5006736;28;20212;-77
2023/07/04 12:10:16;;;;;;;3.67;1.20;;;;;25.80;101132.00;;;;5005180;28;20573;-78
2023/07/04 12:12:44;;;;;;;3.05;0.77;;;;;25.90;101133.00;;;;5005087;28;20706;-78
2023/07/04 12:15:18;;;;;;;3.17;1.00;;;;;25.90;101123.00;;;;5005109;28;20225;-76
2023/07/04 12:17:48;;;;;;;2.78;0.88;;;;;26.00;101128.00;;;;5008382;28;20203;-77
2023/07/04 12:20:18;;;;;;;2.33;0.95;;;;;26.10;101135.00;;;;4995151;28;20216;-78
2023/07/04 12:22:51;;;;;;;4.55;1.25;;;;;26.10;101141.00;;;;5002458;28;21044;-80